메인 페이지
METAR-TAF:

METAR-TAF

공항 :

Hammond Northshore Regional Airport

Hammond, 루이지애나, 미국

위도: 30-31-15N, 경도: 090-25-03W, 고도: 13m

현재 날씨관측

예보는 25분 전, 06:55시(UTC)에 발표되었습니다.
북북서8kt
온도 18°C
습도 94%
기압 1016 hPa
시정: 16.1km
고도 700ft 상공 구름 보통

METAR: KHDC 220655Z AUTO 34008KT 10SM SCT007 18/17 A2999 RMK AO2 PWINO

시각: 02:20 (07:20 UTC)

예보

예보는 2 시간 0분 전, 05:20시(UTC)에 발표되었습니다.
예보 대상 시간: 22일 06시부터 23일 06시까지 (UTC)
북북서5kt
시정: 10km
고도 900ft 상공 구름 많음
일시적
22일 06시부터 22일 09시까지 (UTC)
시정: 6.4km
박무
22일 0900시부터 (UTC)
북북서6kt
시정: 10km
고도 8000ft 상공 구름 보통
고도 10000ft 상공 구름 많음
22일 1200시부터 (UTC)
여러 방향의 바람 3kt
시정: 10km
고도 15000ft 상공 구름 조금
고도 25000ft 상공 구름 조금
23일 0000시부터 (UTC)
여러 방향의 바람 3kt
시정: 10km
맑음

TAF: KHDC 220520Z 2206/2306 33005KT P6SM BKN009 TEMPO 2206/2209 4SM BR FM220900 34006KT P6SM SCT080 BKN100 FM221200 VRB03KT P6SM FEW150 FEW250 FM230000 VRB03KT P6SM SKC

4,000개 이상의 공항 관측 자료 및 예보 (METAR 및 TAF 보고).

지도상에서 검색 가능한 기상관측소가 노란 점과 빨간 점으로 표시되어 있습니다.

기상관측소 명을 보려면 표시 위로 마우스를 이동하세요.

날씨 관측과 예보를 보려면 클릭하세요.

지도 변경 : 확대하려면 엑스 표시가 있는 녹색 버튼, 축소하려면 빼기 표시가 있는 녹색 버튼, 다음 페이지의 지도를 보려면 녹색 화살표를 클릭하세요.


METAR-TAF: